Time;durP1;ratioP1;P1;durP2;ratioP2;P2;SDS_P1;SDS_P2;PMS_P1;PMS_P2;Temp;Humidity;BMP_temperature;BMP_pressure;BME280_temperature;BME280_humidity;BME280_pressure;Samples;Min_cycle;Max_cycle;Signal;HPM_P1;HPM_P2
2021/12/04 00:00:46;;;;;;;;;2.75;2.75;;;;;11.54;72.61;99289.84;2071315;28;48911;-52
2021/12/04 00:01:48;;;;;;;;;4.50;3.75;;;;;11.55;72.63;99289.78;2068510;28;46981;-55
2021/12/04 00:02:52;;;;;;;;;4.00;3.50;;;;;11.56;72.20;99286.22;2069128;28;45535;-55
2021/12/04 00:03:53;;;;;;;;;3.00;3.00;;;;;11.57;72.22;99282.63;2076565;28;47228;-52
2021/12/04 00:04:55;;;;;;;;;3.00;2.25;;;;;11.58;72.32;99279.03;2077182;28;45622;-53
2021/12/04 00:06:02;;;;;;;;;3.25;3.00;;;;;11.59;72.46;99274.56;2069888;28;47590;-49
2021/12/04 00:07:05;;;;;;;;;4.50;4.50;;;;;11.60;72.52;99269.16;2066883;28;46164;-52
2021/12/04 00:08:06;;;;;;;;;2.00;2.00;;;;;11.62;72.26;99264.63;2072622;28;47352;-57
2021/12/04 00:09:07;;;;;;;;;2.00;2.00;;;;;11.62;72.20;99267.31;2078460;28;47059;-55
2021/12/04 00:10:09;;;;;;;;;4.00;4.00;;;;;11.64;72.33;99252.13;2078564;28;45468;-63
2021/12/04 00:11:10;;;;;;;;;2.50;2.50;;;;;11.64;72.57;99252.13;2078721;28;46835;-53
2021/12/04 00:12:11;;;;;;;;;4.00;3.00;;;;;11.66;72.65;99255.56;2078325;28;48160;-54
2021/12/04 00:13:11;;;;;;;;;3.00;3.00;;;;;11.68;72.38;99252.84;2076222;28;48449;-52
2021/12/04 00:14:12;;;;;;;;;3.00;2.00;;;;;11.68;72.52;99251.03;2078552;28;45396;-55
2021/12/04 00:15:12;;;;;;;;;2.00;2.00;;;;;11.71;72.40;99252.72;2076584;28;47455;-52
2021/12/04 00:16:13;;;;;;;;;1.00;1.00;;;;;11.72;72.39;99244.66;2078238;28;48309;-52
2021/12/04 00:17:14;;;;;;;;;1.67;1.67;;;;;11.72;72.63;99246.44;2078100;28;47526;-51
2021/12/04 00:18:14;;;;;;;;;1.67;1.67;;;;;11.73;72.70;99245.50;2077044;28;48119;-52
2021/12/04 00:19:15;;;;;;;;;1.67;1.67;;;;;11.74;72.59;99237.47;2076618;28;47175;-52
2021/12/04 00:20:15;;;;;;;;;1.33;1.33;;;;;11.76;72.52;99240.91;2073222;28;47413;-54
2021/12/04 00:21:16;;;;;;;;;3.00;1.00;;;;;11.78;72.47;99235.50;2076511;28;46840;-62
2021/12/04 00:22:16;;;;;;;;;1.00;1.00;;;;;11.78;72.67;99233.69;2076339;28;46021;-56
2021/12/04 00:23:17;;;;;;;;;1.00;1.00;;;;;11.80;72.70;99238.97;2077049;28;47214;-53
2021/12/04 00:24:18;;;;;;;;;0.00;0.00;;;;;11.81;72.64;99234.50;2074796;28;47741;-53
2021/12/04 00:25:19;;;;;;;;;0.25;0.25;;;;;11.82;72.89;99236.25;2074860;28;47846;-53
2021/12/04 00:26:19;;;;;;;;;1.00;1.00;;;;;11.83;73.17;99244.16;2077087;28;47360;-55
2021/12/04 00:27:19;;;;;;;;;1.00;0.00;;;;;11.85;73.11;99230.78;2077900;28;47935;-57
2021/12/04 00:28:20;;;;;;;;;0.33;0.33;;;;;11.87;73.03;99231.56;2078484;28;47715;-57
2021/12/04 00:29:22;;;;;;;;;1.00;1.00;;;;;11.88;73.14;99228.81;2074719;28;47769;-60
2021/12/04 00:30:25;;;;;;;;;1.50;1.00;;;;;11.89;72.86;99222.56;2076492;28;47442;-55
2021/12/04 00:31:27;;;;;;;;;0.25;0.00;;;;;11.91;72.93;99228.66;2079945;28;48122;-55
2021/12/04 00:32:31;;;;;;;;;0.00;0.00;;;;;11.91;73.00;99220.69;2079071;28;47321;-59
2021/12/04 00:33:33;;;;;;;;;0.00;0.00;;;;;11.93;73.13;99218.81;2078200;28;47272;-51
2021/12/04 00:34:38;;;;;;;;;0.00;0.00;;;;;11.95;73.14;99221.41;2076108;28;47305;-53
2021/12/04 00:35:52;;;;;;;;;0.00;0.00;;;;;11.96;73.11;99228.44;2063752;28;45321;-53
2021/12/04 00:49:28;;;;;;;;;0.00;0.00;;;;;12.14;73.63;99213.34;2078328;28;47649;-55
2021/12/04 00:50:29;;;;;;;;;0.00;0.00;;;;;12.16;73.58;99216.75;2078704;28;47668;-65
2021/12/04 00:51:30;;;;;;;;;0.00;0.00;;;;;12.17;73.68;99206.03;2079056;28;47443;-56
2021/12/04 00:52:30;;;;;;;;;0.00;0.00;;;;;12.18;73.38;99218.41;2079361;28;47891;-51
2021/12/04 00:53:31;;;;;;;;;0.00;0.00;;;;;12.19;73.38;99217.47;2078535;28;47557;-52
2021/12/04 00:54:31;;;;;;;;;1.00;1.00;;;;;12.21;73.46;99206.78;2079295;28;45923;-56
2021/12/04 00:55:32;;;;;;;;;0.00;0.00;;;;;12.23;73.52;99210.19;2078951;28;47386;-59
2021/12/04 00:56:33;;;;;;;;;0.00;0.00;;;;;12.24;73.63;99204.78;2079393;28;47300;-51
2021/12/04 00:57:34;;;;;;;;;0.00;0.00;;;;;12.27;73.41;99217.94;2078618;28;47631;-59
2021/12/04 00:58:34;;;;;;;;;1.00;0.00;;;;;12.28;73.53;99203.69;2078184;28;46947;-54
2021/12/04 00:59:34;;;;;;;;;0.00;0.00;;;;;12.30;73.47;99204.47;2078327;28;47236;-56
2021/12/04 01:00:35;;;;;;;;;0.00;0.00;;;;;12.31;73.57;99200.84;2078833;28;47601;-56
2021/12/04 01:01:40;;;;;;;;;0.00;0.00;;;;;12.31;73.77;99203.50;2076452;28;47790;-55
2021/12/04 01:02:42;;;;;;;;;0.00;0.00;;;;;12.33;73.71;99199.00;2079416;28;47639;-59
2021/12/04 01:03:43;;;;;;;;;0.00;0.00;;;;;12.36;73.70;99197.97;2078487;28;47277;-61
2021/12/04 01:04:43;;;;;;;;;0.00;0.00;;;;;12.37;73.58;99202.34;2075996;28;47042;-57
2021/12/04 01:05:44;;;;;;;;;0.33;0.00;;;;;12.39;73.72;99205.78;2079117;28;46950;-53
2021/12/04 01:06:45;;;;;;;;;0.00;0.00;;;;;12.41;73.88;99200.38;2079295;28;48130;-52
2021/12/04 01:07:46;;;;;;;;;0.00;0.00;;;;;12.42;73.69;99197.63;2078358;28;46901;-58
2021/12/04 01:08:46;;;;;;;;;0.00;0.00;;;;;12.44;73.82;99198.41;2078596;28;46497;-54
2021/12/04 01:09:47;;;;;;;;;0.00;0.00;;;;;12.46;73.82;99201.00;2078385;28;46053;-59
2021/12/04 01:10:47;;;;;;;;;0.00;0.00;;;;;12.46;73.92;99199.22;2079857;28;47005;-54
2021/12/04 01:11:48;;;;;;;;;0.00;0.00;;;;;12.48;73.72;99199.13;2079895;28;47159;-59
2021/12/04 01:12:50;;;;;;;;;0.00;0.00;;;;;12.49;73.96;99200.84;2080485;28;46870;-62
2021/12/04 01:13:50;;;;;;;;;0.00;0.00;;;;;12.51;73.91;99191.81;2077629;28;46510;-59
2021/12/04 01:14:51;;;;;;;;;0.00;0.00;;;;;12.52;73.79;99201.53;2084245;28;47183;-58
2021/12/04 01:15:51;;;;;;;;;0.00;0.00;;;;;12.54;73.80;99204.09;2079097;28;46710;-53
2021/12/04 01:16:52;;;;;;;;;0.00;0.00;;;;;12.55;73.82;99203.16;2078801;28;47620;-55
2021/12/04 01:17:52;;;;;;;;;0.00;0.00;;;;;12.57;73.93;99214.56;2078171;28;47214;-54
2021/12/04 01:18:53;;;;;;;;;0.00;0.00;;;;;12.57;73.92;99199.47;2077638;28;47751;-53
2021/12/04 01:19:53;;;;;;;;;0.00;0.00;;;;;12.59;73.74;99202.06;2077299;28;47451;-52
2021/12/04 01:20:53;;;;;;;;;0.00;0.00;;;;;12.59;73.75;99210.91;2079556;28;47972;-60
2021/12/04 01:21:54;;;;;;;;;0.00;0.00;;;;;12.62;73.84;99208.06;2079411;28;48025;-53
2021/12/04 01:22:54;;;;;;;;;0.00;0.00;;;;;12.63;73.75;99209.78;2079110;28;47453;-52
2021/12/04 01:23:55;;;;;;;;;0.00;0.00;;;;;12.64;73.87;99203.53;2079228;28;47948;-53
2021/12/04 01:24:56;;;;;;;;;0.00;0.00;;;;;12.65;73.77;99202.56;2076323;28;47661;-52
2021/12/04 01:25:56;;;;;;;;;0.00;0.00;;;;;12.67;73.72;99194.50;2078339;28;47618;-53
2021/12/04 01:26:57;;;;;;;;;0.00;0.00;;;;;12.70;73.92;99204.13;2077931;28;47763;-52
2021/12/04 01:27:57;;;;;;;;;0.00;0.00;;;;;12.70;73.75;99206.78;2081138;28;47446;-59
2021/12/04 01:28:58;;;;;;;;;0.00;0.00;;;;;12.71;73.82;99206.72;2077233;28;47626;-53
2021/12/04 01:29:58;;;;;;;;;1.00;1.00;;;;;12.73;73.88;99212.81;2074497;28;47561;-60
2021/12/04 01:30:59;;;;;;;;;1.00;0.00;;;;;12.74;73.93;99209.22;2076042;28;47152;-53
2021/12/04 01:32:00;;;;;;;;;0.00;0.00;;;;;12.75;73.93;99202.09;2077253;28;47561;-54
2021/12/04 01:33:01;;;;;;;;;0.00;0.00;;;;;12.78;73.80;99209.91;2077385;28;47394;-58
2021/12/04 01:34:01;;;;;;;;;0.00;0.00;;;;;12.77;73.93;99209.03;2077765;28;47616;-54
2021/12/04 01:35:03;;;;;;;;;0.00;0.00;;;;;12.78;73.98;99205.44;2078327;28;45816;-54
2021/12/04 01:36:03;;;;;;;;;0.00;0.00;;;;;12.79;73.89;99203.63;2078404;28;47451;-62
2021/12/04 01:37:04;;;;;;;;;0.00;0.00;;;;;12.80;73.89;99208.00;2078776;28;46068;-65
2021/12/04 01:38:05;;;;;;;;;0.00;0.00;;;;;12.80;74.00;99202.69;2077514;28;47151;-65
2021/12/04 01:39:06;;;;;;;;;0.00;0.00;;;;;12.80;73.93;99200.88;2078451;28;46716;-55
2021/12/04 01:40:07;;;;;;;;;0.00;0.00;;;;;12.82;74.03;99211.44;2078235;28;47702;-56
2021/12/04 01:41:08;;;;;;;;;0.00;0.00;;;;;12.82;74.02;99209.63;2078078;28;47295;-54
2021/12/04 01:42:08;;;;;;;;;0.00;0.00;;;;;12.84;73.83;99214.91;2078189;28;47918;-60
2021/12/04 01:43:09;;;;;;;;;0.00;0.00;;;;;12.84;73.97;99215.75;2078502;28;47420;-62
2021/12/04 01:44:11;;;;;;;;;0.00;0.00;;;;;12.84;73.95;99210.44;2079812;28;47998;-66
2021/12/04 01:45:12;;;;;;;;;0.75;0.00;;;;;12.85;74.11;99206.81;2078518;28;47151;-54
2021/12/04 01:46:13;;;;;;;;;0.00;0.00;;;;;12.87;74.06;99217.38;2075823;28;47411;-53
2021/12/04 01:47:16;;;;;;;;;0.00;0.00;;;;;12.87;74.08;99212.94;2078369;28;48019;-60
2021/12/04 01:48:16;;;;;;;;;0.00;0.00;;;;;12.88;74.17;99216.44;2079113;28;46899;-52
2021/12/04 01:49:16;;;;;;;;;0.00;0.00;;;;;12.89;73.73;99211.03;2078816;28;47328;-55
2021/12/04 01:50:17;;;;;;;;;0.00;0.00;;;;;12.91;73.96;99205.63;2076269;28;48530;-52
2021/12/04 01:51:17;;;;;;;;;0.00;0.00;;;;;12.91;73.92;99218.94;2075708;28;46391;-57
2021/12/04 01:52:18;;;;;;;;;0.00;0.00;;;;;12.92;73.95;99217.97;2078508;28;46743;-63
2021/12/04 01:53:19;;;;;;;;;0.00;0.00;;;;;12.92;73.78;99213.53;2075825;28;47158;-54
2021/12/04 01:54:21;;;;;;;;;0.00;0.00;;;;;12.92;74.03;99210.00;2078368;28;47263;-50
2021/12/04 01:55:26;;;;;;;;;0.00;0.00;;;;;12.93;73.94;99211.72;2073971;28;47484;-53
2021/12/04 01:56:31;;;;;;;;;0.00;0.00;;;;;12.93;73.78;99217.91;2076421;28;47260;-54
2021/12/04 01:57:32;;;;;;;;;0.00;0.00;;;;;12.94;73.96;99218.75;2078285;28;47791;-63
2021/12/04 01:58:32;;;;;;;;;0.00;0.00;;;;;12.95;73.98;99209.81;2078363;28;47185;-63
2021/12/04 01:59:33;;;;;;;;;1.00;0.00;;;;;12.96;73.80;99217.75;2078521;28;46533;-63
2021/12/04 02:00:38;;;;;;;;;0.00;0.00;;;;;12.95;73.94;99216.00;2078315;28;47648;-58
2021/12/04 02:01:38;;;;;;;;;0.00;0.00;;;;;12.96;73.86;99214.22;2078008;28;47793;-60
2021/12/04 02:02:39;;;;;;;;;0.00;0.00;;;;;12.96;73.95;99215.09;2078172;28;47667;-54
2021/12/04 02:03:39;;;;;;;;;0.00;0.00;;;;;12.98;73.96;99225.66;2075147;28;47756;-64
2021/12/04 02:04:40;;;;;;;;;0.00;0.00;;;;;12.98;74.18;99228.31;2078134;28;46494;-57
2021/12/04 02:05:41;;;;;;;;;0.00;0.00;;;;;12.99;73.99;99213.19;2078070;28;47523;-55
2021/12/04 02:06:41;;;;;;;;;0.00;0.00;;;;;12.98;73.83;99215.00;2078414;28;47584;-49
2021/12/04 02:07:42;;;;;;;;;0.00;0.00;;;;;12.99;74.05;99215.84;2077913;28;47169;-63
2021/12/04 02:08:43;;;;;;;;;0.00;0.00;;;;;13.01;73.89;99216.63;2078015;28;46731;-55
2021/12/04 02:09:45;;;;;;;;;0.00;0.00;;;;;13.01;74.33;99219.28;2078195;28;45994;-59
2021/12/04 02:10:47;;;;;;;;;0.00;0.00;;;;;13.02;74.14;99223.66;2078499;28;47418;-49
2021/12/04 02:11:48;;;;;;;;;0.00;0.00;;;;;13.00;74.32;99215.78;2078684;28;47974;-54
2021/12/04 02:12:49;;;;;;;;;0.00;0.00;;;;;13.01;74.23;99214.81;2078398;28;47396;-51
2021/12/04 02:13:49;;;;;;;;;0.00;0.00;;;;;13.02;74.11;99219.19;2078844;28;47338;-54
2021/12/04 02:14:50;;;;;;;;;0.00;0.00;;;;;13.02;74.04;99224.53;2077797;28;47631;-53
2021/12/04 02:15:51;;;;;;;;;0.00;0.00;;;;;13.03;74.24;99214.72;2078121;28;47192;-56
2021/12/04 02:16:52;;;;;;;;;0.00;0.00;;;;;13.02;74.47;99213.88;2078007;28;47667;-54
2021/12/04 02:17:53;;;;;;;;;0.00;0.00;;;;;13.03;74.31;99212.06;2077579;28;46065;-55
2021/12/04 02:18:53;;;;;;;;;0.00;0.00;;;;;13.04;74.25;99222.63;2078185;28;46925;-59
2021/12/04 02:19:53;;;;;;;;;0.00;0.00;;;;;13.04;74.11;99217.31;2077853;28;47654;-58
2021/12/04 02:20:54;;;;;;;;;0.00;0.00;;;;;13.05;73.96;99213.69;2077704;28;47208;-54
2021/12/04 02:21:55;;;;;;;;;0.00;0.00;;;;;13.05;74.13;99216.34;2077761;28;46792;-53
2021/12/04 02:22:56;;;;;;;;;0.00;0.00;;;;;13.06;74.17;99222.53;2078205;28;47464;-53
2021/12/04 02:23:57;;;;;;;;;0.00;0.00;;;;;13.08;74.18;99220.66;2078773;28;47766;-52
2021/12/04 02:24:57;;;;;;;;;0.00;0.00;;;;;13.08;73.83;99220.66;2078922;28;47725;-56
2021/12/04 02:25:58;;;;;;;;;0.00;0.00;;;;;13.08;74.26;99215.31;2078744;28;47768;-55
2021/12/04 02:26:59;;;;;;;;;0.00;0.00;;;;;13.08;74.06;99218.84;2078506;28;45701;-55
2021/12/04 02:28:00;;;;;;;;;0.00;0.00;;;;;13.08;74.05;99213.53;2077049;28;47743;-53
2021/12/04 02:29:00;;;;;;;;;0.00;0.00;;;;;13.09;74.08;99225.06;2077888;28;47773;-51
2021/12/04 02:30:04;;;;;;;;;0.00;0.00;;;;;13.09;74.17;99230.38;2078219;28;47257;-54
2021/12/04 02:31:04;;;;;;;;;0.00;0.00;;;;;13.10;74.30;99221.44;2078211;28;47343;-57
2021/12/04 02:32:05;;;;;;;;;0.00;0.00;;;;;13.10;74.23;99219.66;2077728;28;46775;-58
2021/12/04 02:33:13;;;;;;;;;0.00;0.00;;;;;13.10;74.32;99216.97;2078034;28;44988;-65
2021/12/04 02:34:26;;;;;;;;;0.00;0.00;;;;;13.11;74.24;99220.50;2075039;28;47519;-52
2021/12/04 02:35:27;;;;;;;;;0.00;0.00;;;;;13.11;74.30;99216.03;2078318;28;47334;-57
2021/12/04 02:36:27;;;;;;;;;0.00;0.00;;;;;13.13;74.15;99218.59;2079067;28;47063;-53
2021/12/04 02:37:28;;;;;;;;;0.00;0.00;;;;;13.13;74.07;99215.94;2078611;28;47565;-57
2021/12/04 02:38:29;;;;;;;;;0.00;0.00;;;;;13.13;74.13;99219.47;2078123;28;47610;-52
2021/12/04 02:39:34;;;;;;;;;0.00;0.00;;;;;13.16;74.11;99221.09;2078061;28;47346;-54
2021/12/04 02:40:35;;;;;;;;;0.00;0.00;;;;;13.14;73.98;99213.19;2077623;28;47529;-54
2021/12/04 02:41:35;;;;;;;;;0.00;0.00;;;;;13.16;74.04;99219.28;2078251;28;47544;-66
2021/12/04 02:42:36;;;;;;;;;0.00;0.00;;;;;13.16;73.92;99219.28;2078023;28;47409;-54
2021/12/04 02:43:37;;;;;;;;;0.00;0.00;;;;;13.17;74.31;99222.81;2077314;28;47267;-54
2021/12/04 02:44:41;;;;;;;;;0.00;0.00;;;;;13.17;74.10;99218.34;2078187;28;46913;-59
2021/12/04 02:45:43;;;;;;;;;0.00;0.00;;;;;13.17;74.12;99213.00;2077527;28;47854;-52
2021/12/04 02:46:44;;;;;;;;;0.25;0.00;;;;;13.18;74.15;99221.84;2078104;28;47357;-52
2021/12/04 02:47:44;;;;;;;;;0.00;0.00;;;;;13.19;73.99;99223.59;2077535;28;47383;-48
2021/12/04 02:48:47;;;;;;;;;0.00;0.00;;;;;13.19;74.02;99223.59;2078414;28;48610;-57
2021/12/04 02:49:47;;;;;;;;;0.00;0.00;;;;;13.20;73.98;99220.84;2077595;28;47544;-65
2021/12/04 02:50:48;;;;;;;;;0.00;0.00;;;;;13.20;74.07;99222.66;2070008;28;45227;-52
2021/12/04 02:51:48;;;;;;;;;0.00;0.00;;;;;13.22;74.10;99220.78;2069889;28;47580;-52
2021/12/04 02:52:49;;;;;;;;;0.00;0.00;;;;;13.22;73.94;99226.13;2077966;28;45440;-52
2021/12/04 02:53:49;;;;;;;;;0.00;0.00;;;;;13.22;74.00;99223.47;2078173;28;46036;-54
2021/12/04 02:54:52;;;;;;;;;0.00;0.00;;;;;13.23;74.00;99218.03;2077792;28;46430;-56
2021/12/04 02:55:53;;;;;;;;;0.00;0.00;;;;;13.23;73.88;99220.72;2078024;28;46881;-57
2021/12/04 02:56:53;;;;;;;;;0.00;0.00;;;;;13.23;73.97;99227.84;2078416;28;47349;-54
2021/12/04 02:57:54;;;;;;;;;0.00;0.00;;;;;13.24;73.97;99227.75;2077066;28;47746;-51
2021/12/04 02:59:01;;;;;;;;;1.00;0.00;;;;;13.24;74.05;99225.09;2077756;28;47170;-52
2021/12/04 03:00:03;;;;;;;;;0.00;0.00;;;;;13.25;73.85;99225.94;2077521;28;47836;-61
2021/12/04 03:01:03;;;;;;;;;0.00;0.00;;;;;13.25;74.13;99225.94;2069974;28;45788;-49
2021/12/04 03:02:06;;;;;;;;;1.00;0.00;;;;;13.25;73.92;99221.47;2069909;28;47525;-53
2021/12/04 03:03:07;;;;;;;;;1.00;0.00;;;;;13.27;73.84;99223.19;2078214;28;47428;-56
2021/12/04 03:04:09;;;;;;;;;0.00;0.00;;;;;13.28;73.91;99227.56;2078396;28;45674;-56
2021/12/04 03:05:11;;;;;;;;;0.00;0.00;;;;;13.28;73.97;99231.09;2078039;28;47880;-60
2021/12/04 03:06:12;;;;;;;;;0.00;0.00;;;;;13.29;73.92;99234.63;2077817;28;47983;-60
2021/12/04 03:07:14;;;;;;;;;0.00;0.00;;;;;13.29;74.14;99235.47;2077930;28;48083;-67
2021/12/04 03:08:14;;;;;;;;;0.00;0.00;;;;;13.31;73.91;99238.91;2077392;28;46815;-60
2021/12/04 03:09:16;;;;;;;;;0.00;0.00;;;;;13.31;73.80;99236.25;2077926;28;48093;-67
2021/12/04 03:10:17;;;;;;;;;0.00;0.00;;;;;13.31;73.89;99233.56;2068958;28;48469;-53
2021/12/04 03:11:17;;;;;;;;;0.00;0.00;;;;;13.32;73.86;99235.28;2070498;28;47088;-51
2021/12/04 03:12:22;;;;;;;;;0.00;0.00;;;;;13.32;73.72;99229.97;2079259;28;47202;-61
2021/12/04 03:13:23;;;;;;;;;0.00;0.00;;;;;13.34;73.82;99236.09;2078514;28;47297;-60
2021/12/04 03:14:24;;;;;;;;;1.00;0.00;;;;;13.34;73.80;99229.88;2078851;28;47645;-65
2021/12/04 03:15:24;;;;;;;;;0.00;0.00;;;;;13.34;73.70;99224.53;2081680;28;47718;-68
2021/12/04 03:16:25;;;;;;;;;0.00;0.00;;;;;13.33;73.99;99231.69;2078375;28;47397;-54
2021/12/04 03:17:26;;;;;;;;;0.00;0.00;;;;;13.33;73.70;99230.81;2078179;28;48560;-51
2021/12/04 03:18:27;;;;;;;;;0.00;0.00;;;;;13.33;73.34;99223.69;2077819;28;47328;-52
2021/12/04 03:19:28;;;;;;;;;0.00;0.00;;;;;13.33;73.68;99221.03;2078397;28;48402;-51
2021/12/04 03:20:28;;;;;;;;;0.00;0.00;;;;;13.34;73.91;99225.44;2078444;28;47820;-54
2021/12/04 03:21:30;;;;;;;;;0.00;0.00;;;;;13.34;73.82;99228.09;2077987;28;45028;-53
2021/12/04 03:22:31;;;;;;;;;0.00;0.00;;;;;13.35;73.83;99221.81;2078036;28;47528;-63
2021/12/04 03:23:40;;;;;;;;;0.00;0.00;;;;;13.35;73.86;99226.28;2076882;28;47421;-65
2021/12/04 03:24:42;;;;;;;;;0.00;0.00;;;;;13.35;73.66;99227.16;2070245;28;47674;-58
2021/12/04 03:25:46;;;;;;;;;0.00;0.00;;;;;13.36;73.69;99220.88;2073769;28;45395;-59
2021/12/04 03:26:49;;;;;;;;;0.00;0.00;;;;;13.37;73.59;99224.41;2074223;28;47868;-65
2021/12/04 03:27:51;;;;;;;;;0.75;0.00;;;;;13.36;73.83;99233.34;2070597;28;47689;-68
2021/12/04 03:28:56;;;;;;;;;0.00;0.00;;;;;13.36;73.68;99226.19;2067553;28;47305;-61
2021/12/04 03:29:59;;;;;;;;;0.00;0.00;;;;;13.36;73.92;99225.34;2067259;28;47464;-51
2021/12/04 03:31:16;;;;;;;;;0.00;0.00;;;;;13.36;73.72;99225.34;2076208;28;46274;-51
2021/12/04 03:40:10;;;;;;;;;0.00;0.00;;;;;13.38;73.60;99223.44;2069280;28;47061;-51
2021/12/04 03:41:07;;;;;;;;;0.00;0.00;;;;;13.38;73.54;99226.13;2078475;28;47265;-69
2021/12/04 03:42:07;;;;;;;;;0.00;0.00;;;;;13.38;73.55;99224.31;2078687;28;47507;-53
2021/12/04 03:43:09;;;;;;;;;1.00;0.00;;;;;13.37;73.54;99224.41;2077438;28;46734;-53
2021/12/04 03:44:09;;;;;;;;;0.00;0.00;;;;;13.37;73.60;99219.94;2073584;28;47577;-56
2021/12/04 03:45:11;;;;;;;;;1.00;1.00;;;;;13.39;73.71;99225.16;2078829;28;47488;-48
2021/12/04 03:46:15;;;;;;;;;0.00;0.00;;;;;13.38;73.51;99226.97;2078012;28;47485;-67
2021/12/04 03:47:16;;;;;;;;;0.00;0.00;;;;;13.38;73.53;99226.13;2078121;28;45534;-68
2021/12/04 03:49:38;;;;;;;;;0.00;0.00;;;;;13.41;73.70;99223.25;2077302;28;46895;-66
2021/12/04 03:50:38;;;;;;;;;0.00;0.00;;;;;13.42;73.47;99224.97;2068496;28;47511;-68
2021/12/04 03:51:38;;;;;;;;;0.00;0.00;;;;;13.41;73.61;99224.13;2068902;28;47244;-68
2021/12/04 03:52:39;;;;;;;;;0.00;0.00;;;;;13.42;73.56;99231.16;2073656;28;45647;-55
2021/12/04 03:53:40;;;;;;;;;0.00;0.00;;;;;13.42;73.44;99225.84;2066587;28;47588;-54
2021/12/04 03:54:41;;;;;;;;;0.00;0.00;;;;;13.44;73.53;99220.41;2077473;28;47182;-61
2021/12/04 03:55:41;;;;;;;;;0.00;0.00;;;;;13.44;73.33;99225.75;2077846;28;47062;-53
2021/12/04 03:56:42;;;;;;;;;0.00;0.00;;;;;13.44;73.52;99223.94;2078053;28;46589;-61
2021/12/04 03:57:45;;;;;;;;;0.00;0.00;;;;;13.45;73.46;99230.13;2078117;28;47486;-55
2021/12/04 03:58:45;;;;;;;;;0.00;0.00;;;;;13.43;73.26;99219.56;2077606;28;45486;-58
2021/12/04 03:59:48;;;;;;;;;0.00;0.00;;;;;13.46;73.39;99231.84;2077228;28;46903;-49
2021/12/04 04:00:49;;;;;;;;;0.00;0.00;;;;;13.45;73.40;99230.13;2077006;28;47260;-66
2021/12/04 04:01:50;;;;;;;;;1.00;0.00;;;;;13.45;73.46;99224.78;2079278;28;47315;-62
2021/12/04 04:02:51;;;;;;;;;0.00;0.00;;;;;13.45;73.43;99227.47;2078905;28;47663;-52
2021/12/04 04:03:51;;;;;;;;;0.00;0.00;;;;;13.45;73.19;99225.66;2078839;28;46055;-67
2021/12/04 04:04:52;;;;;;;;;0.00;0.00;;;;;13.44;73.38;99223.94;2076728;28;47059;-67
2021/12/04 04:05:54;;;;;;;;;0.00;0.00;;;;;13.44;73.44;99231.06;2076646;28;47510;-66
2021/12/04 04:06:55;;;;;;;;;0.00;0.00;;;;;13.44;73.53;99226.59;2079263;28;47447;-51
2021/12/04 04:07:55;;;;;;;;;1.00;0.00;;;;;13.44;73.41;99221.28;2079665;28;48161;-49
2021/12/04 04:08:56;;;;;;;;;1.00;0.00;;;;;13.45;73.26;99230.13;2078862;28;47540;-65
2021/12/04 04:09:56;;;;;;;;;0.00;0.00;;;;;13.44;73.31;99229.28;2077182;28;46710;-51
2021/12/04 04:10:57;;;;;;;;;0.00;0.00;;;;;13.43;73.28;99219.56;2075608;28;46676;-53
2021/12/04 04:11:57;;;;;;;;;0.00;0.00;;;;;13.44;73.35;99223.94;2080375;28;47776;-53
2021/12/04 04:12:58;;;;;;;;;0.00;0.00;;;;;13.44;73.05;99221.28;2079552;28;47384;-53
2021/12/04 04:13:58;;;;;;;;;0.00;0.00;;;;;13.45;73.39;99219.47;2078707;28;48333;-53
2021/12/04 04:14:58;;;;;;;;;0.00;0.00;;;;;13.45;73.39;99227.47;2079045;28;46219;-57
2021/12/04 04:16:00;;;;;;;;;0.00;0.00;;;;;13.45;73.24;99223.00;2078914;28;47151;-53
2021/12/04 04:17:01;;;;;;;;;0.00;0.00;;;;;13.46;73.54;99226.50;2079335;28;47239;-52
2021/12/04 04:18:01;;;;;;;;;0.00;0.00;;;;;13.45;73.26;99222.13;2078604;28;47257;-52
2021/12/04 04:19:03;;;;;;;;;0.00;0.00;;;;;13.46;73.23;99231.84;2079049;28;47166;-52
2021/12/04 04:20:04;;;;;;;;;0.00;0.00;;;;;13.46;73.02;99232.69;2078834;28;47460;-59
2021/12/04 04:21:05;;;;;;;;;0.00;0.00;;;;;13.46;73.05;99237.16;2078974;28;47079;-53
2021/12/04 04:22:05;;;;;;;;;0.00;0.00;;;;;13.45;73.19;99228.31;2079572;28;46516;-52
2021/12/04 04:23:06;;;;;;;;;0.00;0.00;;;;;13.46;73.04;99238.03;2079249;28;47396;-57
2021/12/04 04:24:09;;;;;;;;;0.00;0.00;;;;;13.47;73.08;99234.44;2079457;28;47143;-53
2021/12/04 04:25:10;;;;;;;;;0.00;0.00;;;;;13.46;73.22;99226.50;2079681;28;47142;-69
2021/12/04 04:26:11;;;;;;;;;0.00;0.00;;;;;13.46;73.14;99223.84;2078844;28;46554;-69
2021/12/04 04:27:11;;;;;;;;;0.00;0.00;;;;;13.45;73.11;99225.66;2079380;28;47283;-68
2021/12/04 04:28:12;;;;;;;;;0.00;0.00;;;;;13.45;73.16;99217.66;2078261;28;47532;-60
2021/12/04 04:29:13;;;;;;;;;0.00;0.00;;;;;13.46;73.20;99222.03;2078744;28;46270;-54
2021/12/04 04:30:17;;;;;;;;;1.25;0.00;;;;;13.46;72.98;99226.50;2078545;28;46502;-50
2021/12/04 04:31:18;;;;;;;;;0.00;0.00;;;;;13.46;72.87;99210.53;2079032;28;46936;-68
2021/12/04 04:32:18;;;;;;;;;0.00;0.00;;;;;13.48;72.66;99219.31;2078788;28;47283;-65
2021/12/04 04:33:19;;;;;;;;;0.00;0.00;;;;;13.47;72.85;99214.94;2078969;28;47098;-56
2021/12/04 04:34:29;;;;;;;;;0.00;0.00;;;;;13.46;73.02;99213.19;2078558;28;47390;-61
2021/12/04 04:35:32;;;;;;;;;0.00;0.00;;;;;13.46;72.95;99218.50;2078889;28;47436;-53
2021/12/04 04:39:21;;;;;;;;;1.00;0.00;;;;;13.46;72.81;99226.50;2070206;28;46148;-61
2021/12/04 05:01:14;;;;;;;;;0.00;0.00;;;;;13.46;72.92;99208.72;2062677;28;45839;-53
2021/12/04 05:02:28;;;;;;;;;0.00;0.00;;;;;13.48;73.20;99206.00;2066477;28;47851;-63
2021/12/04 05:10:37;;;;;;;;;0.00;0.00;;;;;13.48;72.96;99201.53;2036985;28;47858;-56
2021/12/04 05:11:42;;;;;;;;;0.00;0.00;;;;;13.48;72.87;99204.19;2076881;28;47693;-64
2021/12/04 05:13:50;;;;;;;;;0.00;0.00;;;;;13.47;73.03;99201.63;2077099;28;47032;-52
2021/12/04 05:14:59;;;;;;;;;0.00;0.00;;;;;13.47;72.91;99198.94;2084624;28;46903;-70
2021/12/04 05:16:10;;;;;;;;;0.25;0.00;;;;;13.47;72.97;99198.94;2079546;28;47234;-69
2021/12/04 05:17:15;;;;;;;;;0.00;0.00;;;;;13.48;73.01;99198.00;2078762;28;47178;-71
2021/12/04 05:19:53;;;;;;;;;0.00;0.00;;;;;13.44;73.05;99199.97;2078017;28;47962;-61
2021/12/04 05:20:52;;;;;;;;;0.00;0.00;;;;;13.47;73.00;99198.94;2075010;28;47580;-52
2021/12/04 05:21:54;;;;;;;;;0.00;0.00;;;;;13.47;73.04;99194.47;2078865;28;47735;-53
2021/12/04 05:22:54;;;;;;;;;0.00;0.00;;;;;13.47;72.93;99198.94;2069164;28;47161;-53
2021/12/04 05:23:55;;;;;;;;;0.00;0.00;;;;;13.47;72.91;99191.81;2069272;28;47739;-66
2021/12/04 05:24:56;;;;;;;;;1.00;1.00;;;;;13.47;72.87;99188.28;2071883;28;46702;-52
2021/12/04 05:25:57;;;;;;;;;0.00;0.00;;;;;13.47;73.04;99199.81;2078030;28;46986;-53
2021/12/04 05:26:58;;;;;;;;;0.00;0.00;;;;;13.46;72.95;99194.53;2078574;28;47679;-69
2021/12/04 05:27:58;;;;;;;;;0.00;0.00;;;;;13.46;72.67;99191.88;2077885;28;47483;-70
2021/12/04 05:29:00;;;;;;;;;0.00;0.00;;;;;13.46;72.92;99195.38;2078544;28;47530;-69
2021/12/04 05:30:00;;;;;;;;;0.00;0.00;;;;;13.46;72.96;99195.38;2068128;28;47925;-61
2021/12/04 05:31:01;;;;;;;;;0.00;0.00;;;;;13.47;72.54;99196.28;2068881;28;47887;-69
2021/12/04 05:32:06;;;;;;;;;0.00;0.00;;;;;13.47;72.83;99193.63;2074666;28;47571;-49
2021/12/04 05:33:06;;;;;;;;;0.00;0.00;;;;;13.46;72.68;99195.38;2077332;28;47849;-68
2021/12/04 05:34:07;;;;;;;;;0.00;0.00;;;;;13.46;72.94;99191.88;2077223;28;47280;-50
2021/12/04 05:35:08;;;;;;;;;0.00;0.00;;;;;13.45;72.82;99193.69;2078593;28;47261;-52
2021/12/04 05:36:09;;;;;;;;;0.00;0.00;;;;;13.44;72.79;99193.75;2078018;28;46580;-60
2021/12/04 05:37:10;;;;;;;;;0.00;0.00;;;;;13.44;72.73;99199.09;2078749;28;47486;-63
2021/12/04 05:38:10;;;;;;;;;0.00;0.00;;;;;13.45;72.68;99195.47;2077989;28;47311;-60
2021/12/04 05:39:12;;;;;;;;;0.00;0.00;;;;;13.45;72.72;99192.81;2074048;28;47464;-59
2021/12/04 05:40:13;;;;;;;;;0.00;0.00;;;;;13.45;72.73;99190.16;2075136;28;47458;-53
2021/12/04 05:41:16;;;;;;;;;0.00;0.00;;;;;13.45;72.85;99195.47;2078658;28;47044;-55
2021/12/04 05:42:17;;;;;;;;;0.00;0.00;;;;;13.43;72.88;99184.91;2078469;28;47478;-52
2021/12/04 05:43:21;;;;;;;;;0.00;0.00;;;;;13.44;72.72;99193.75;2078932;28;47214;-54
2021/12/04 05:44:25;;;;;;;;;0.00;0.00;;;;;13.43;72.68;99198.25;2079223;28;46929;-56
2021/12/04 05:45:27;;;;;;;;;0.00;0.00;;;;;13.43;72.84;99190.25;2079008;28;47702;-69